createdAt,value
2023-04-20T00:01:11.088Z,5.30
2023-04-20T00:03:39.038Z,5.28
2023-04-20T00:06:07.043Z,4.68
2023-04-20T00:08:34.327Z,4.55
2023-04-20T00:11:01.597Z,5.32
2023-04-20T00:13:29.077Z,4.90
2023-04-20T00:15:56.294Z,5.38
2023-04-20T00:18:23.393Z,4.80
2023-04-20T00:20:50.795Z,5.07
2023-04-20T00:23:18.051Z,4.82
2023-04-20T00:25:45.557Z,4.90
2023-04-20T00:28:12.872Z,5.35
2023-04-20T00:30:41.354Z,5.65
2023-04-20T00:33:08.790Z,4.82
2023-04-20T00:35:35.895Z,5.60
2023-04-20T00:38:03.204Z,4.70
2023-04-20T00:40:30.448Z,5.13
2023-04-20T00:42:57.532Z,4.78
2023-04-20T00:45:24.881Z,5.18
2023-04-20T00:47:52.534Z,4.57
2023-04-20T00:50:21.600Z,5.32
2023-04-20T00:52:49.014Z,5.30
2023-04-20T00:55:17.630Z,5.70
2023-04-20T00:57:45.451Z,5.68
2023-04-20T01:00:13.213Z,5.22
2023-04-20T01:02:41.435Z,4.97
2023-04-20T01:05:09.653Z,5.20
2023-04-20T01:07:37.003Z,5.43
2023-04-20T01:10:06.621Z,5.22
2023-04-20T01:12:36.146Z,4.78
2023-04-20T01:15:08.838Z,5.25
2023-04-20T01:17:39.977Z,5.35
2023-04-20T01:20:09.877Z,5.05
2023-04-20T01:22:50.371Z,5.43
2023-04-20T01:25:18.543Z,5.85
2023-04-20T01:27:48.020Z,5.70
2023-04-20T01:30:15.745Z,6.03
2023-04-20T01:32:43.614Z,6.13
2023-04-20T01:35:11.313Z,6.00
2023-04-20T01:37:40.458Z,6.13
2023-04-20T01:40:12.565Z,5.78
2023-04-20T01:42:40.293Z,5.65
2023-04-20T01:45:08.694Z,6.03
2023-04-20T01:47:37.258Z,5.95
2023-04-20T01:50:05.223Z,5.90
2023-04-20T01:52:33.736Z,6.13
2023-04-20T01:55:01.351Z,5.22
2023-04-20T01:57:31.714Z,5.68
2023-04-20T01:59:59.125Z,5.90
2023-04-20T02:02:27.689Z,5.45
2023-04-20T02:04:55.193Z,5.40
2023-04-20T02:07:22.495Z,6.38
2023-04-20T02:09:49.768Z,6.20
2023-04-20T02:12:17.011Z,5.50
2023-04-20T02:14:44.442Z,6.28
2023-04-20T02:17:11.809Z,5.75
2023-04-20T02:19:38.940Z,6.68
2023-04-20T02:22:06.756Z,6.28
2023-04-20T02:24:34.111Z,6.05
2023-04-20T02:27:01.599Z,6.13
2023-04-20T02:29:29.142Z,6.57
2023-04-20T02:31:56.939Z,6.38
2023-04-20T02:34:24.828Z,6.95
2023-04-20T02:36:52.097Z,6.22
2023-04-20T02:39:19.843Z,7.22
2023-04-20T02:41:47.312Z,7.97
2023-04-20T02:44:14.445Z,7.22
2023-04-20T02:46:41.788Z,7.10
2023-04-20T02:49:09.645Z,6.95
2023-04-20T02:51:42.177Z,7.38
2023-04-20T02:54:09.602Z,7.10
2023-04-20T02:56:37.276Z,8.18
2023-04-20T02:59:08.695Z,7.55
2023-04-20T03:01:44.905Z,6.63
2023-04-20T03:04:19.582Z,7.53
2023-04-20T03:06:58.762Z,7.60
2023-04-20T03:09:32.644Z,6.95
2023-04-20T03:12:16.540Z,7.55
2023-04-20T03:14:49.836Z,8.13
2023-04-20T03:17:20.556Z,8.50
2023-04-20T03:19:48.056Z,8.05
2023-04-20T03:22:15.608Z,7.22
2023-04-20T03:24:42.967Z,8.30
2023-04-20T03:27:22.678Z,6.85
2023-04-20T03:30:06.477Z,7.53
2023-04-20T03:32:34.350Z,7.75
2023-04-20T03:35:02.176Z,8.73
2023-04-20T03:37:31.697Z,7.63
2023-04-20T03:39:58.860Z,7.72
2023-04-20T03:42:26.369Z,8.45
2023-04-20T03:44:55.309Z,8.02
2023-04-20T03:47:22.582Z,7.53
2023-04-20T03:49:50.720Z,7.90
2023-04-20T03:52:17.937Z,8.38
2023-04-20T03:54:45.250Z,7.90
2023-04-20T03:57:15.462Z,7.53
2023-04-20T03:59:43.825Z,8.13
2023-04-20T04:02:15.949Z,8.65
2023-04-20T04:04:46.487Z,8.60
2023-04-20T04:07:14.092Z,8.15
2023-04-20T04:09:43.379Z,8.52
2023-04-20T04:12:12.373Z,8.02
2023-04-20T04:14:40.348Z,8.23
2023-04-20T04:17:09.073Z,8.70
2023-04-20T04:19:40.811Z,8.90
2023-04-20T04:22:09.340Z,8.15
2023-04-20T04:24:42.931Z,8.30
2023-04-20T04:27:14.292Z,8.60
2023-04-20T04:29:50.219Z,8.18
2023-04-20T04:32:20.571Z,8.68
2023-04-20T04:34:49.123Z,7.30
2023-04-20T04:37:17.174Z,7.43
2023-04-20T04:39:52.147Z,8.25
2023-04-20T04:42:25.325Z,8.38
2023-04-20T04:44:53.685Z,8.45
2023-04-20T04:47:29.918Z,7.47
2023-04-20T04:49:57.157Z,8.27
2023-04-20T04:52:24.602Z,8.70
2023-04-20T04:54:52.586Z,8.18
2023-04-20T04:57:19.867Z,7.75
2023-04-20T04:59:47.083Z,8.00
2023-04-20T05:02:14.666Z,8.20
2023-04-20T05:04:42.121Z,8.52
2023-04-20T05:07:12.355Z,7.95
2023-04-20T05:09:39.891Z,8.27
2023-04-20T05:12:07.635Z,8.43
2023-04-20T05:14:35.469Z,8.18
2023-04-20T05:17:03.018Z,8.25
2023-04-20T05:19:30.320Z,7.93
2023-04-20T05:21:57.843Z,8.52
2023-04-20T05:24:25.314Z,7.78
2023-04-20T05:26:52.812Z,8.50
2023-04-20T05:29:20.101Z,8.05
2023-04-20T05:31:47.699Z,8.45
2023-04-20T05:34:15.252Z,8.88
2023-04-20T05:36:42.606Z,8.63
2023-04-20T05:39:10.696Z,8.20
2023-04-20T05:41:38.596Z,8.60
2023-04-20T05:44:05.994Z,8.50
2023-04-20T05:46:33.255Z,8.63
2023-04-20T05:49:00.445Z,7.80
2023-04-20T05:51:30.573Z,8.95
2023-04-20T05:53:57.809Z,8.60
2023-04-20T05:56:25.893Z,8.13
2023-04-20T05:58:54.814Z,8.35
2023-04-20T06:01:22.828Z,8.40
2023-04-20T06:03:50.305Z,8.45
2023-04-20T06:06:17.848Z,8.32
2023-04-20T06:08:45.185Z,8.15
2023-04-20T06:11:12.408Z,8.13
2023-04-20T06:13:39.576Z,8.05
2023-04-20T06:16:09.781Z,8.02
2023-04-20T06:18:37.729Z,8.63
2023-04-20T06:21:05.015Z,7.63
2023-04-20T06:23:32.487Z,8.32
2023-04-20T06:25:59.786Z,8.00
2023-04-20T06:28:27.209Z,8.00
2023-04-20T06:30:54.459Z,7.38
2023-04-20T06:33:21.901Z,7.82
2023-04-20T06:35:49.088Z,7.18
2023-04-20T06:38:16.505Z,7.70
2023-04-20T06:40:43.792Z,7.00
2023-04-20T06:43:11.168Z,6.03
2023-04-20T06:45:40.337Z,6.15
2023-04-20T06:48:17.103Z,7.13
2023-04-20T06:50:55.140Z,7.05
2023-04-20T06:53:22.512Z,6.70
2023-04-20T06:55:50.838Z,6.63
2023-04-20T06:58:18.261Z,7.50
2023-04-20T07:00:45.765Z,6.40
2023-04-20T07:03:13.321Z,6.50
2023-04-20T07:05:41.050Z,6.20
2023-04-20T07:08:09.716Z,7.15
2023-04-20T07:10:37.074Z,6.70
2023-04-20T07:13:04.270Z,7.00
2023-04-20T07:15:31.618Z,6.68
2023-04-20T07:17:59.861Z,6.07
2023-04-20T07:20:27.110Z,6.43
2023-04-20T07:22:54.561Z,5.93
2023-04-20T07:25:22.016Z,6.10
2023-04-20T07:27:49.281Z,6.50
2023-04-20T07:30:16.648Z,6.05
2023-04-20T07:32:44.071Z,6.03
2023-04-20T07:35:11.827Z,6.57
2023-04-20T07:37:39.359Z,6.25
2023-04-20T07:40:07.423Z,5.60
2023-04-20T07:42:37.287Z,6.25
2023-04-20T07:45:08.138Z,6.47
2023-04-20T07:47:36.636Z,5.25
2023-04-20T07:50:05.183Z,5.03
2023-04-20T07:52:34.698Z,4.78
2023-04-20T07:55:02.608Z,4.00
2023-04-20T07:57:35.450Z,3.63
2023-04-20T08:00:05.886Z,4.03
2023-04-20T08:02:41.066Z,4.35
2023-04-20T08:05:10.577Z,3.60
2023-04-20T08:07:38.983Z,2.95
2023-04-20T08:10:07.686Z,3.75
2023-04-20T08:12:36.463Z,3.38
2023-04-20T08:15:07.230Z,3.42
2023-04-20T08:17:34.757Z,3.80
2023-04-20T08:20:02.657Z,4.15
2023-04-20T08:22:33.715Z,4.45
2023-04-20T08:25:01.017Z,5.18
2023-04-20T08:27:30.688Z,4.50
2023-04-20T08:29:58.381Z,3.90
2023-04-20T08:32:26.942Z,4.38
2023-04-20T08:34:54.446Z,4.13
2023-04-20T08:37:22.043Z,4.00
2023-04-20T08:39:49.345Z,3.85
2023-04-20T08:42:17.213Z,3.90
2023-04-20T08:44:45.023Z,3.75
2023-04-20T08:47:14.693Z,4.20
2023-04-20T08:49:42.022Z,4.15
2023-04-20T08:52:11.229Z,4.10
2023-04-20T08:54:46.056Z,3.80
2023-04-20T08:57:17.137Z,4.20
2023-04-20T08:59:44.441Z,4.22
2023-04-20T09:02:12.970Z,3.97
2023-04-20T09:04:41.442Z,4.07
2023-04-20T09:07:21.203Z,3.88
2023-04-20T09:10:00.233Z,4.38
2023-04-20T09:12:28.403Z,4.30
2023-04-20T09:14:56.912Z,4.60
2023-04-20T09:17:35.303Z,4.10
2023-04-20T09:20:03.168Z,4.60
2023-04-20T09:22:36.499Z,4.93
2023-04-20T09:25:17.577Z,4.22
2023-04-20T09:27:59.207Z,4.18
2023-04-20T09:30:38.536Z,4.00
2023-04-20T09:33:08.624Z,4.72
2023-04-20T09:35:36.358Z,4.40
2023-04-20T09:38:03.884Z,4.20
2023-04-20T09:40:33.766Z,4.38
2023-04-20T09:43:09.812Z,4.05
2023-04-20T09:45:39.464Z,4.35
2023-04-20T09:48:10.262Z,3.97
2023-04-20T09:50:48.651Z,3.88
2023-04-20T09:53:18.717Z,4.38
2023-04-20T09:55:48.659Z,4.43
2023-04-20T09:58:20.422Z,4.28
2023-04-20T10:00:48.144Z,4.05
2023-04-20T10:03:19.814Z,4.00
2023-04-20T10:05:47.965Z,4.15
2023-04-20T10:08:15.636Z,4.63
2023-04-20T10:10:50.750Z,4.30
2023-04-20T10:13:20.625Z,4.18
2023-04-20T10:15:47.969Z,3.95
2023-04-20T10:18:24.008Z,3.88
2023-04-20T10:21:04.069Z,4.28
2023-04-20T10:23:31.346Z,4.40
2023-04-20T10:26:01.141Z,4.32
2023-04-20T10:28:44.526Z,4.50
2023-04-20T10:31:14.299Z,4.57
2023-04-20T10:33:51.568Z,4.60
2023-04-20T10:36:34.508Z,4.43
2023-04-20T10:39:05.182Z,4.50
2023-04-20T10:41:32.443Z,4.55
2023-04-20T10:44:09.957Z,4.80
2023-04-20T10:46:37.795Z,4.55
2023-04-20T10:49:05.413Z,4.15
2023-04-20T10:51:32.522Z,3.95
2023-04-20T10:54:09.494Z,3.72
2023-04-20T10:56:45.680Z,4.47
2023-04-20T10:59:15.745Z,4.18
2023-04-20T11:01:47.011Z,4.68
2023-04-20T11:04:18.313Z,4.20
2023-04-20T11:06:48.589Z,4.38
2023-04-20T11:09:20.681Z,3.80
2023-04-20T11:11:59.735Z,4.20
2023-04-20T11:14:27.147Z,3.97
2023-04-20T11:16:54.844Z,4.68
2023-04-20T11:19:26.695Z,3.92
2023-04-20T11:21:54.979Z,4.32
2023-04-20T11:24:25.592Z,4.40
2023-04-20T11:26:54.611Z,5.13
2023-04-20T11:29:36.771Z,4.30
2023-04-20T11:32:07.337Z,3.90
2023-04-20T11:34:36.633Z,4.20
2023-04-20T11:37:13.301Z,4.90
2023-04-20T11:39:41.337Z,4.32
2023-04-20T11:42:09.003Z,4.07
2023-04-20T11:44:37.266Z,4.53
2023-04-20T11:47:08.290Z,4.30
2023-04-20T11:49:35.705Z,3.75
2023-04-20T11:52:03.503Z,4.28
2023-04-20T11:54:34.148Z,4.10
2023-04-20T11:57:02.714Z,4.13
2023-04-20T11:59:30.232Z,3.95
2023-04-20T12:01:57.635Z,4.10
2023-04-20T12:04:25.248Z,4.60
2023-04-20T12:06:52.853Z,4.50
2023-04-20T12:09:20.435Z,4.40
2023-04-20T12:11:47.918Z,4.45
2023-04-20T12:14:15.230Z,3.92
2023-04-20T12:16:43.032Z,3.75
2023-04-20T12:19:10.433Z,4.07
2023-04-20T12:21:37.853Z,4.10
2023-04-20T12:24:05.457Z,4.00
2023-04-20T12:26:41.542Z,4.72
2023-04-20T12:29:09.073Z,4.95
2023-04-20T12:31:36.669Z,4.00
2023-04-20T12:34:04.429Z,4.30
2023-04-20T12:36:32.655Z,4.15
2023-04-20T12:38:59.928Z,4.13
2023-04-20T12:41:27.618Z,4.35
2023-04-20T12:43:55.117Z,4.43
2023-04-20T12:46:22.971Z,4.35
2023-04-20T12:48:50.206Z,4.32
2023-04-20T12:51:19.088Z,4.20
2023-04-20T12:53:46.481Z,5.28
2023-04-20T12:56:14.998Z,4.43
2023-04-20T12:58:42.407Z,4.20
2023-04-20T13:01:10.131Z,4.63
2023-04-20T13:03:38.108Z,5.35
2023-04-20T13:06:06.334Z,4.57
2023-04-20T13:08:33.967Z,4.28
2023-04-20T13:11:03.772Z,4.32
2023-04-20T13:13:31.295Z,3.88
2023-04-20T13:15:58.667Z,4.25
2023-04-20T13:18:26.148Z,4.53
2023-04-20T13:20:53.383Z,4.25
2023-04-20T13:23:20.734Z,4.35
2023-04-20T13:25:48.106Z,4.13
2023-04-20T13:28:15.627Z,3.95
2023-04-20T13:30:42.964Z,3.80
2023-04-20T13:33:11.076Z,4.35
2023-04-20T13:35:38.472Z,3.97
2023-04-20T13:38:06.291Z,4.43
2023-04-20T13:40:33.649Z,4.03
2023-04-20T13:43:01.454Z,4.00
2023-04-20T13:45:28.701Z,3.78
2023-04-20T13:47:56.402Z,3.95
2023-04-20T13:50:23.981Z,4.10
2023-04-20T13:52:51.308Z,4.10
2023-04-20T13:55:20.805Z,4.45
2023-04-20T13:57:48.152Z,3.70
2023-04-20T14:00:15.827Z,4.85
2023-04-20T14:02:43.367Z,3.80
2023-04-20T14:05:11.115Z,4.03
2023-04-20T14:07:39.919Z,4.53
2023-04-20T14:10:08.175Z,3.95
2023-04-20T14:12:35.738Z,3.72
2023-04-20T14:15:04.131Z,4.30
2023-04-20T14:17:33.187Z,4.20
2023-04-20T14:20:00.363Z,4.07
2023-04-20T14:22:34.426Z,4.43
2023-04-20T14:25:02.919Z,4.00
2023-04-20T14:27:31.530Z,4.15
2023-04-20T14:29:58.883Z,4.72
2023-04-20T14:32:26.268Z,4.80
2023-04-20T14:34:53.709Z,4.53
2023-04-20T14:37:21.046Z,4.53
2023-04-20T14:39:48.285Z,4.05
2023-04-20T14:42:15.636Z,4.10
2023-04-20T14:44:43.003Z,4.63
2023-04-20T14:47:10.755Z,3.78
2023-04-20T14:49:39.999Z,4.00
2023-04-20T14:52:07.449Z,4.20
2023-04-20T14:54:34.894Z,4.07
2023-04-20T14:57:02.955Z,4.85
2023-04-20T14:59:32.387Z,4.97
2023-04-20T15:02:03.294Z,4.70
2023-04-20T15:04:31.124Z,4.30
2023-04-20T15:06:58.603Z,4.35
2023-04-20T15:09:26.208Z,4.22
2023-04-20T15:11:53.486Z,4.25
2023-04-20T15:14:21.329Z,3.92
2023-04-20T15:16:48.792Z,4.65
2023-04-20T15:19:16.637Z,4.55
2023-04-20T15:21:44.651Z,4.38
2023-04-20T15:24:12.244Z,4.47
2023-04-20T15:26:39.807Z,3.97
2023-04-20T15:29:07.088Z,4.30
2023-04-20T15:31:34.572Z,4.50
2023-04-20T15:34:01.884Z,4.60
2023-04-20T15:36:30.338Z,4.57
2023-04-20T15:38:58.128Z,4.38
2023-04-20T15:41:25.906Z,4.68
2023-04-20T15:43:53.486Z,4.55
2023-04-20T15:46:24.506Z,4.07
2023-04-20T15:48:53.288Z,4.30
2023-04-20T15:51:20.658Z,4.43
2023-04-20T15:53:50.795Z,3.92
2023-04-20T15:56:22.766Z,3.90
2023-04-20T15:58:51.239Z,4.30
2023-04-20T16:01:20.031Z,4.40
2023-04-20T16:03:48.586Z,4.43
2023-04-20T16:06:16.152Z,4.53
2023-04-20T16:08:43.771Z,4.38
2023-04-20T16:11:11.212Z,4.53
2023-04-20T16:13:38.907Z,4.10
2023-04-20T16:16:06.534Z,4.50
2023-04-20T16:18:33.710Z,4.53
2023-04-20T16:21:00.999Z,4.95
2023-04-20T16:23:29.182Z,4.05
2023-04-20T16:25:56.776Z,4.50
2023-04-20T16:28:24.108Z,4.10
2023-04-20T16:30:51.491Z,4.78
2023-04-20T16:33:19.404Z,4.15
2023-04-20T16:35:47.073Z,4.95
2023-04-20T16:38:14.286Z,4.78
2023-04-20T16:40:42.872Z,4.80
2023-04-20T16:43:09.987Z,4.60
2023-04-20T16:45:39.145Z,5.38
2023-04-20T16:48:08.403Z,4.80
2023-04-20T16:50:38.027Z,4.53
2023-04-20T16:53:06.527Z,5.07
2023-04-20T16:55:33.832Z,4.35
2023-04-20T16:58:01.299Z,5.18
2023-04-20T17:00:30.709Z,4.55
2023-04-20T17:03:03.108Z,4.90
2023-04-20T17:05:30.955Z,4.53
2023-04-20T17:07:59.154Z,4.38
2023-04-20T17:10:31.208Z,4.80
2023-04-20T17:12:58.846Z,4.40
2023-04-20T17:15:29.799Z,5.10
2023-04-20T17:17:57.592Z,5.28
2023-04-20T17:20:25.187Z,5.70
2023-04-20T17:22:52.572Z,5.18
2023-04-20T17:25:19.817Z,4.63
2023-04-20T17:27:48.125Z,6.30
2023-04-20T17:30:15.754Z,5.53
2023-04-20T17:32:43.762Z,5.22
2023-04-20T17:35:11.331Z,4.90
2023-04-20T17:37:38.805Z,5.55
2023-04-20T17:40:06.858Z,5.75
2023-04-20T17:42:34.375Z,6.05
2023-04-20T17:45:04.141Z,4.90
2023-04-20T17:47:32.886Z,5.50
2023-04-20T17:50:00.382Z,5.53
2023-04-20T17:52:27.923Z,6.43
2023-04-20T17:54:55.513Z,5.03
2023-04-20T17:57:22.961Z,4.75
2023-04-20T17:59:50.916Z,4.43
2023-04-20T18:02:18.506Z,4.80
2023-04-20T18:04:46.238Z,5.63
2023-04-20T18:07:15.831Z,4.90
2023-04-20T18:09:43.695Z,5.57
2023-04-20T18:12:11.575Z,6.18
2023-04-20T18:14:40.745Z,5.30
2023-04-20T18:17:08.719Z,6.28
2023-04-20T18:19:36.144Z,5.63
2023-04-20T18:22:03.807Z,5.93
2023-04-20T18:24:31.009Z,5.93
2023-04-20T18:26:58.396Z,6.45
2023-04-20T18:29:26.307Z,5.85
2023-04-20T18:31:56.231Z,6.18
2023-04-20T18:34:25.192Z,5.78
2023-04-20T18:36:52.449Z,5.30
2023-04-20T18:39:19.914Z,5.85
2023-04-20T18:41:47.229Z,5.55
2023-04-20T18:44:14.603Z,5.25
2023-04-20T18:46:42.599Z,5.80
2023-04-20T18:49:13.028Z,5.80
2023-04-20T18:51:43.309Z,5.85
2023-04-20T18:54:11.080Z,5.20
2023-04-20T18:56:39.840Z,5.85
2023-04-20T18:59:10.727Z,6.50
2023-04-20T19:01:40.846Z,5.90
2023-04-20T19:04:08.717Z,5.38
2023-04-20T19:06:36.651Z,5.68
2023-04-20T19:09:06.541Z,5.55
2023-04-20T19:11:35.635Z,5.25
2023-04-20T19:14:03.467Z,6.05
2023-04-20T19:16:32.763Z,5.63
2023-04-20T19:19:00.942Z,6.13
2023-04-20T19:21:28.502Z,5.50
2023-04-20T19:23:56.427Z,5.50
2023-04-20T19:26:24.380Z,6.22
2023-04-20T19:28:51.629Z,6.07
2023-04-20T19:31:19.216Z,5.80
2023-04-20T19:33:46.735Z,6.00
2023-04-20T19:36:14.623Z,5.10
2023-04-20T19:38:42.048Z,5.10
2023-04-20T19:41:09.893Z,5.90
2023-04-20T19:43:37.777Z,6.50
2023-04-20T19:46:05.101Z,5.35
2023-04-20T19:48:32.724Z,5.47
2023-04-20T19:51:01.059Z,6.45
2023-04-20T19:53:28.812Z,5.93
2023-04-20T19:55:56.437Z,5.95
2023-04-20T19:58:24.397Z,5.32
2023-04-20T20:00:51.835Z,5.28
2023-04-20T20:03:19.480Z,5.40
2023-04-20T20:05:46.774Z,5.45
2023-04-20T20:08:14.148Z,5.20
2023-04-20T20:10:44.542Z,6.13
2023-04-20T20:13:11.912Z,5.78
2023-04-20T20:15:39.405Z,5.38
2023-04-20T20:18:06.996Z,5.32
2023-04-20T20:20:34.628Z,6.97
2023-04-20T20:23:01.972Z,6.18
2023-04-20T20:25:29.381Z,6.00
2023-04-20T20:27:56.957Z,6.30
2023-04-20T20:30:24.770Z,6.20
2023-04-20T20:32:51.968Z,5.85
2023-04-20T20:35:19.678Z,7.10
2023-04-20T20:37:47.647Z,6.85
2023-04-20T20:40:15.462Z,5.57
2023-04-20T20:42:45.272Z,5.90
2023-04-20T20:45:13.104Z,6.13
2023-04-20T20:47:42.694Z,6.60
2023-04-20T20:50:15.940Z,4.80
2023-04-20T20:52:43.208Z,5.72
2023-04-20T20:55:11.134Z,5.10
2023-04-20T20:57:38.637Z,5.57
2023-04-20T21:00:08.524Z,5.53
2023-04-20T21:02:39.188Z,5.15
2023-04-20T21:05:06.779Z,5.00
2023-04-20T21:07:34.086Z,5.43
2023-04-20T21:10:01.658Z,4.93
2023-04-20T21:12:33.134Z,5.53
2023-04-20T21:15:00.700Z,5.13
2023-04-20T21:17:28.080Z,5.15
2023-04-20T21:19:55.247Z,4.60
2023-04-20T21:22:22.708Z,5.50
2023-04-20T21:24:50.238Z,5.05
2023-04-20T21:27:17.640Z,5.10
2023-04-20T21:29:44.931Z,5.82
2023-04-20T21:32:12.250Z,5.10
2023-04-20T21:34:39.810Z,4.70
2023-04-20T21:37:07.297Z,5.90
2023-04-20T21:39:35.195Z,5.30
2023-04-20T21:42:03.744Z,5.20
2023-04-20T21:44:31.048Z,5.97
2023-04-20T21:46:58.234Z,5.07
2023-04-20T21:49:25.405Z,5.05
2023-04-20T21:51:52.535Z,5.35
2023-04-20T21:54:19.908Z,5.13
2023-04-20T21:56:47.256Z,4.80
2023-04-20T21:59:14.620Z,5.20
2023-04-20T22:01:41.941Z,4.28
2023-04-20T22:04:09.887Z,4.90
2023-04-20T22:06:37.708Z,5.03
2023-04-20T22:09:05.182Z,5.20
2023-04-20T22:11:36.636Z,4.70
2023-04-20T22:14:04.680Z,6.05
2023-04-20T22:16:34.863Z,5.00
2023-04-20T22:19:02.582Z,5.20
2023-04-20T22:21:29.767Z,5.15
2023-04-20T22:23:56.941Z,4.78
2023-04-20T22:26:24.333Z,4.65
2023-04-20T22:28:51.625Z,4.75
2023-04-20T22:31:19.028Z,4.50
2023-04-20T22:33:46.366Z,4.10
2023-04-20T22:36:13.684Z,4.65
2023-04-20T22:38:41.249Z,4.15
2023-04-20T22:41:08.778Z,4.28
2023-04-20T22:43:36.244Z,5.40
2023-04-20T22:46:04.050Z,3.55
2023-04-20T22:48:31.421Z,4.25
2023-04-20T22:51:01.652Z,4.65
2023-04-20T22:53:31.492Z,5.25
2023-04-20T22:56:06.641Z,5.22
2023-04-20T22:58:34.476Z,6.85
2023-04-20T23:01:02.357Z,6.38
2023-04-20T23:03:29.885Z,7.05
2023-04-20T23:05:59.275Z,7.15
2023-04-20T23:08:28.425Z,7.00
2023-04-20T23:10:55.641Z,6.68
2023-04-20T23:13:26.333Z,6.35
2023-04-20T23:15:54.380Z,7.03
2023-04-20T23:18:21.719Z,4.70
2023-04-20T23:20:48.997Z,5.63
2023-04-20T23:23:16.212Z,5.05
2023-04-20T23:25:43.771Z,6.22
2023-04-20T23:28:11.585Z,4.68
2023-04-20T23:30:39.197Z,5.50
2023-04-20T23:33:06.381Z,5.35
2023-04-20T23:35:33.857Z,4.78
2023-04-20T23:38:01.613Z,5.07
2023-04-20T23:40:28.860Z,4.20
2023-04-20T23:42:56.170Z,3.67
2023-04-20T23:45:23.599Z,3.80
2023-04-20T23:47:50.975Z,3.40
2023-04-20T23:50:18.487Z,3.85
2023-04-20T23:52:45.896Z,3.70
2023-04-20T23:55:14.209Z,3.40
2023-04-20T23:57:44.199Z,3.90
